createdAt,value
2019-05-28T00:03:42.133Z,16.24
2019-05-28T00:07:43.938Z,16.24
2019-05-28T00:11:45.718Z,16.19
2019-05-28T00:15:47.552Z,16.07
2019-05-28T00:19:49.690Z,15.99
2019-05-28T00:23:51.511Z,15.91
2019-05-28T00:27:53.421Z,15.80
2019-05-28T00:31:55.616Z,15.80
2019-05-28T00:35:57.390Z,15.71
2019-05-28T00:40:02.556Z,15.75
2019-05-28T00:44:04.050Z,15.71
2019-05-28T00:48:05.906Z,15.69
2019-05-28T00:52:07.673Z,15.62
2019-05-28T00:56:10.001Z,15.65
2019-05-28T01:00:12.349Z,15.59
2019-05-28T01:04:14.141Z,15.52
2019-05-28T01:08:15.989Z,15.42
2019-05-28T01:12:18.222Z,15.61
2019-05-28T01:16:20.535Z,15.33
2019-05-28T01:20:22.334Z,15.47
2019-05-28T01:24:24.754Z,15.22
2019-05-28T01:28:26.556Z,15.39
2019-05-28T01:32:28.471Z,15.31
2019-05-28T01:36:30.766Z,15.20
2019-05-28T01:40:35.543Z,15.13
2019-05-28T01:44:37.690Z,15.13
2019-05-28T01:48:39.548Z,15.17
2019-05-28T01:52:41.323Z,15.20
2019-05-28T01:56:43.602Z,15.23
2019-05-28T02:00:45.802Z,15.21
2019-05-28T02:04:47.643Z,15.21
2019-05-28T02:08:49.676Z,15.23
2019-05-28T02:12:51.625Z,15.19
2019-05-28T02:16:53.446Z,15.23
2019-05-28T02:20:55.758Z,15.16
2019-05-28T02:24:58.231Z,15.09
2019-05-28T02:29:00.465Z,15.07
2019-05-28T02:33:02.336Z,15.13
2019-05-28T02:37:04.124Z,14.99
2019-05-28T02:41:06.343Z,15.11
2019-05-28T02:45:09.171Z,15.00
2019-05-28T02:49:11.367Z,14.98
2019-05-28T02:53:13.472Z,15.08
2019-05-28T02:57:15.649Z,14.82
2019-05-28T03:01:19.950Z,14.86
2019-05-28T03:05:22.008Z,14.87
2019-05-28T03:09:24.740Z,14.80
2019-05-28T03:13:27.037Z,14.89
2019-05-28T03:17:31.430Z,14.90
2019-05-28T03:21:35.546Z,15.12
2019-05-28T03:25:38.792Z,14.87
2019-05-28T03:29:40.627Z,14.82
2019-05-28T03:33:42.411Z,14.80
2019-05-28T03:37:45.917Z,14.87
2019-05-28T03:41:47.766Z,14.80
2019-05-28T03:45:49.900Z,14.69
2019-05-28T03:49:51.679Z,14.75
2019-05-28T03:53:53.459Z,14.70
2019-05-28T03:57:55.475Z,14.72
2019-05-28T04:01:57.407Z,14.76
2019-05-28T04:05:59.329Z,14.79
2019-05-28T04:10:01.301Z,14.82
2019-05-28T04:14:03.582Z,14.83
2019-05-28T04:18:05.790Z,14.84
2019-05-28T04:22:07.861Z,14.81
2019-05-28T04:26:10.246Z,14.80
2019-05-28T04:30:12.281Z,14.78
2019-05-28T04:34:14.038Z,14.76
2019-05-28T04:38:16.741Z,14.76
2019-05-28T04:42:18.771Z,14.77
2019-05-28T04:46:20.539Z,14.82
2019-05-28T04:50:22.523Z,14.87
2019-05-28T04:54:24.832Z,14.89
2019-05-28T04:58:26.665Z,14.89
2019-05-28T05:02:28.450Z,14.87
2019-05-28T05:06:30.242Z,14.88
2019-05-28T05:10:32.894Z,14.90
2019-05-28T05:14:35.079Z,14.95
2019-05-28T05:18:37.525Z,14.94
2019-05-28T05:22:39.370Z,15.00
2019-05-28T05:26:41.220Z,15.13
2019-05-28T05:30:43.012Z,15.15
2019-05-28T05:34:45.129Z,15.15
2019-05-28T05:38:46.931Z,15.27
2019-05-28T05:42:48.726Z,15.34
2019-05-28T05:46:51.633Z,15.39
2019-05-28T05:50:53.520Z,15.51
2019-05-28T05:54:55.588Z,15.48
2019-05-28T05:58:58.650Z,15.50
2019-05-28T06:03:38.590Z,15.48
2019-05-28T06:07:23.380Z,15.47
2019-05-28T06:11:25.496Z,15.54
2019-05-28T06:15:27.814Z,15.62
2019-05-28T06:19:30.097Z,15.73
2019-05-28T06:23:32.880Z,15.81
2019-05-28T06:27:35.142Z,15.95
2019-05-28T06:31:37.265Z,16.07
2019-05-28T06:35:39.264Z,16.16
2019-05-28T06:39:41.419Z,16.23
2019-05-28T06:43:43.302Z,16.32
2019-05-28T06:47:45.851Z,16.57
2019-05-28T06:51:48.362Z,16.62
2019-05-28T06:55:50.610Z,16.69
2019-05-28T06:59:55.379Z,16.75
2019-05-28T07:04:12.786Z,16.78
2019-05-28T07:08:25.283Z,16.92
2019-05-28T07:12:27.770Z,17.13
2019-05-28T07:16:29.671Z,17.33
2019-05-28T07:20:33.492Z,17.37
2019-05-28T07:24:35.304Z,17.23
2019-05-28T07:28:37.573Z,17.29
2019-05-28T07:32:39.846Z,17.60
2019-05-28T07:36:41.777Z,17.77
2019-05-28T07:40:43.610Z,17.77
2019-05-28T07:44:45.512Z,17.61
2019-05-28T07:48:47.799Z,17.72
2019-05-28T07:52:50.130Z,17.61
2019-05-28T07:56:52.139Z,17.56
2019-05-28T08:00:54.554Z,17.41
2019-05-28T08:04:57.133Z,17.65
2019-05-28T08:08:59.419Z,17.59
2019-05-28T08:13:02.031Z,17.44
2019-05-28T08:17:03.876Z,17.47
2019-05-28T08:21:06.479Z,17.64
2019-05-28T08:25:23.675Z,17.74
2019-05-28T08:29:11.973Z,17.65
2019-05-28T08:33:13.856Z,17.70
2019-05-28T08:37:25.693Z,17.60
2019-05-28T08:41:27.328Z,17.22
2019-05-28T08:45:29.238Z,17.42
2019-05-28T08:49:31.843Z,17.45
2019-05-28T08:53:33.689Z,17.54
2019-05-28T08:57:35.919Z,17.69
2019-05-28T09:01:38.472Z,18.04
2019-05-28T09:05:40.352Z,18.41
2019-05-28T09:09:42.607Z,18.61
2019-05-28T09:13:44.900Z,18.59
2019-05-28T09:17:46.867Z,18.53
2019-05-28T09:21:49.920Z,18.42
2019-05-28T09:25:54.817Z,18.56
2019-05-28T09:34:19.039Z,18.47
2019-05-28T09:38:21.735Z,18.36
2019-05-28T09:42:24.143Z,18.66
2019-05-28T09:46:26.948Z,19.08
2019-05-28T09:54:53.919Z,19.30
2019-05-28T09:58:56.629Z,19.35
2019-05-28T10:02:59.025Z,19.28
2019-05-28T10:07:01.384Z,19.23
2019-05-28T10:11:03.759Z,19.18
2019-05-28T10:15:06.649Z,19.21
2019-05-28T10:19:08.552Z,19.31
2019-05-28T10:23:10.396Z,19.35
2019-05-28T10:27:12.465Z,19.24
2019-05-28T10:31:14.556Z,19.65
2019-05-28T10:35:17.228Z,19.62
2019-05-28T10:39:19.324Z,19.59
2019-05-28T10:43:22.163Z,19.80
2019-05-28T10:47:24.302Z,19.52
2019-05-28T10:51:27.100Z,19.15
2019-05-28T10:55:28.892Z,18.69
2019-05-28T10:59:31.436Z,17.43
2019-05-28T11:03:33.430Z,16.44
2019-05-28T11:07:35.507Z,15.69
2019-05-28T11:11:37.311Z,15.47
2019-05-28T11:15:39.144Z,15.52
2019-05-28T11:19:40.959Z,15.52
2019-05-28T11:23:42.853Z,15.60
2019-05-28T11:27:44.684Z,14.91
2019-05-28T11:31:46.683Z,14.30
2019-05-28T11:35:56.962Z,13.99
2019-05-28T11:40:05.816Z,13.48
2019-05-28T11:44:07.721Z,13.40
2019-05-28T11:48:10.103Z,13.74
2019-05-28T11:52:12.642Z,13.88
2019-05-28T11:56:15.025Z,14.07
2019-05-28T12:00:17.354Z,14.54
2019-05-28T12:04:19.668Z,14.95
2019-05-28T12:08:22.138Z,15.70
2019-05-28T12:12:25.176Z,15.92
2019-05-28T12:16:27.534Z,16.58
2019-05-28T12:20:29.570Z,16.61
2019-05-28T12:24:31.547Z,16.10
2019-05-28T12:28:38.117Z,16.09
2019-05-28T12:32:37.561Z,16.35
2019-05-28T12:36:39.780Z,16.71
2019-05-28T12:40:47.546Z,17.39
2019-05-28T12:44:45.780Z,16.97
2019-05-28T12:48:48.356Z,17.35
2019-05-28T12:52:50.526Z,17.43
2019-05-28T12:56:52.425Z,17.56
2019-05-28T13:00:54.251Z,17.80
2019-05-28T13:04:56.449Z,17.60
2019-05-28T13:08:59.033Z,17.57
2019-05-28T13:13:00.874Z,17.27
2019-05-28T13:17:03.326Z,17.16
2019-05-28T13:21:05.275Z,17.07
2019-05-28T13:25:08.475Z,16.75
2019-05-28T13:29:10.693Z,16.75
2019-05-28T13:33:12.944Z,16.72
2019-05-28T13:37:15.619Z,16.42
2019-05-28T13:41:18.633Z,16.28
2019-05-28T13:45:20.498Z,16.42
2019-05-28T13:49:22.319Z,16.53
2019-05-28T13:53:24.541Z,16.58
2019-05-28T13:57:27.280Z,16.65
2019-05-28T14:01:29.066Z,16.13
2019-05-28T14:05:31.460Z,15.72
2019-05-28T14:09:34.592Z,16.00
2019-05-28T14:13:40.202Z,16.24
2019-05-28T14:17:42.090Z,16.57
2019-05-28T14:21:44.688Z,16.38
2019-05-28T14:25:46.885Z,16.46
2019-05-28T14:29:49.366Z,17.02
2019-05-28T14:33:51.203Z,17.13
2019-05-28T14:37:53.577Z,17.10
2019-05-28T14:41:56.096Z,16.78
2019-05-28T14:45:58.230Z,17.05
2019-05-28T14:50:00.342Z,17.18
2019-05-28T14:54:02.520Z,16.70
2019-05-28T14:58:05.865Z,16.34
2019-05-28T15:02:07.982Z,16.34
2019-05-28T15:06:10.197Z,16.23
2019-05-28T15:10:14.442Z,15.46
2019-05-28T15:14:16.451Z,14.79
2019-05-28T15:18:18.788Z,14.72
2019-05-28T15:22:20.651Z,14.70
2019-05-28T15:26:22.802Z,14.69
2019-05-28T15:30:24.893Z,14.80
2019-05-28T15:34:26.900Z,14.93
2019-05-28T15:38:28.677Z,15.19
2019-05-28T15:42:30.454Z,15.22
2019-05-28T15:46:32.655Z,15.60
2019-05-28T15:50:34.803Z,15.67
2019-05-28T15:54:37.093Z,15.60
2019-05-28T15:58:39.372Z,15.67
2019-05-28T16:02:41.858Z,16.02
2019-05-28T16:06:44.313Z,16.15
2019-05-28T16:10:46.481Z,16.02
2019-05-28T16:14:48.780Z,15.92
2019-05-28T16:18:50.798Z,16.32
2019-05-28T16:22:52.917Z,16.43
2019-05-28T16:26:55.515Z,16.17
2019-05-28T16:31:11.837Z,16.25
2019-05-28T16:35:03.427Z,16.08
2019-05-28T16:39:07.363Z,16.27
2019-05-28T16:43:09.537Z,16.02
2019-05-28T16:47:17.319Z,15.76
2019-05-28T16:51:15.202Z,15.68
2019-05-28T16:55:17.906Z,15.55
2019-05-28T16:59:20.641Z,15.42
2019-05-28T17:03:22.545Z,15.15
2019-05-28T17:07:24.839Z,15.47
2019-05-28T17:11:28.118Z,16.71
2019-05-28T17:15:30.849Z,17.78
2019-05-28T17:19:33.192Z,19.09
2019-05-28T17:23:39.060Z,18.26
2019-05-28T17:27:41.486Z,17.12
2019-05-28T17:31:44.093Z,17.16
2019-05-28T17:35:45.906Z,16.51
2019-05-28T17:39:47.810Z,16.04
2019-05-28T17:43:49.935Z,15.47
2019-05-28T17:47:54.528Z,14.88
2019-05-28T17:51:56.977Z,14.62
2019-05-28T17:55:58.862Z,14.32
2019-05-28T18:00:01.204Z,14.36
2019-05-28T18:04:03.242Z,14.42
2019-05-28T18:08:05.629Z,14.47
2019-05-28T18:12:07.642Z,14.29
2019-05-28T18:16:10.540Z,14.48
2019-05-28T18:20:15.137Z,14.43
2019-05-28T18:24:17.567Z,14.09
2019-05-28T18:28:19.735Z,14.26
2019-05-28T18:32:21.986Z,14.39
2019-05-28T18:36:24.160Z,14.28
2019-05-28T18:40:25.993Z,14.16
2019-05-28T18:44:28.249Z,14.21
2019-05-28T18:48:30.901Z,14.37
2019-05-28T18:52:32.701Z,14.44
2019-05-28T18:56:34.534Z,13.94
2019-05-28T19:00:36.705Z,13.93
2019-05-28T19:04:38.531Z,13.66
2019-05-28T19:08:42.275Z,13.60
2019-05-28T19:12:45.716Z,13.65
2019-05-28T19:16:47.572Z,13.77
2019-05-28T19:20:51.279Z,13.46
2019-05-28T19:24:57.281Z,12.73
2019-05-28T19:28:59.423Z,12.99
2019-05-28T19:33:03.391Z,13.01
2019-05-28T19:37:05.145Z,12.92
2019-05-28T19:41:07.857Z,12.66
2019-05-28T19:45:10.687Z,12.78
2019-05-28T19:49:12.991Z,12.46
2019-05-28T19:53:15.187Z,12.50
2019-05-28T19:57:17.380Z,12.50
2019-05-28T20:01:19.175Z,12.45
2019-05-28T20:05:21.679Z,12.54
2019-05-28T20:09:24.123Z,12.74
2019-05-28T20:13:26.283Z,12.81
2019-05-28T20:17:29.474Z,12.74
2019-05-28T20:21:31.315Z,12.59
2019-05-28T20:25:34.220Z,12.49
2019-05-28T20:29:38.056Z,12.53
2019-05-28T20:33:41.053Z,12.53
2019-05-28T20:37:43.094Z,12.46
2019-05-28T20:41:46.019Z,12.59
2019-05-28T20:45:49.218Z,12.06
2019-05-28T20:49:52.025Z,12.41
2019-05-28T20:53:54.319Z,11.65
2019-05-28T20:57:58.164Z,12.00
2019-05-28T21:02:00.075Z,11.79
2019-05-28T21:06:02.792Z,11.97
2019-05-28T21:10:05.363Z,11.98
2019-05-28T21:14:07.290Z,12.52
2019-05-28T21:18:10.007Z,12.58
2019-05-28T21:22:25.813Z,12.51
2019-05-28T21:26:16.514Z,12.44
2019-05-28T21:30:18.899Z,12.34
2019-05-28T21:34:21.322Z,12.29
2019-05-28T21:38:23.450Z,12.18
2019-05-28T21:42:25.661Z,12.52
2019-05-28T21:46:27.651Z,12.46
2019-05-28T21:50:29.492Z,12.52
2019-05-28T21:54:31.902Z,12.68
2019-05-28T21:58:34.881Z,12.30
2019-05-28T22:02:37.067Z,12.35
2019-05-28T22:06:39.347Z,12.48
2019-05-28T22:10:42.038Z,12.65
2019-05-28T22:14:45.210Z,12.64
2019-05-28T22:18:47.076Z,12.67
2019-05-28T22:24:16.257Z,12.11
2019-05-28T22:28:18.569Z,12.50
2019-05-28T22:32:20.835Z,12.33
2019-05-28T22:36:22.586Z,12.42
2019-05-28T22:40:24.454Z,12.18
2019-05-28T22:44:26.605Z,11.98
2019-05-28T22:48:28.704Z,12.14
2019-05-28T22:52:30.727Z,12.34
2019-05-28T22:56:32.632Z,12.34
2019-05-28T23:00:35.207Z,12.00
2019-05-28T23:04:37.262Z,12.08
2019-05-28T23:08:39.279Z,11.95
2019-05-28T23:12:41.293Z,11.96
2019-05-28T23:16:43.035Z,11.87
2019-05-28T23:20:45.495Z,11.80
2019-05-28T23:24:47.606Z,11.79
2019-05-28T23:28:49.515Z,11.99
2019-05-28T23:32:51.450Z,12.01
2019-05-28T23:36:53.174Z,11.74
2019-05-28T23:40:55.152Z,11.75
2019-05-28T23:44:57.035Z,11.83
2019-05-28T23:48:59.493Z,11.87
2019-05-28T23:53:01.508Z,11.93
2019-05-28T23:57:03.579Z,11.79
